Time;durP1;ratioP1;P1;durP2;ratioP2;P2;SDS_P1;SDS_P2;PMS_P1;PMS_P2;Temp;Humidity;BMP_temperature;BMP_pressure;BME280_temperature;BME280_humidity;BME280_pressure;Samples;Min_cycle;Max_cycle;Signal;HPM_P1;HPM_P2
2022/12/27 00:01:10;;;;;;;10.13;2.10;;;4.10;99.90;;;;;;5052537;28;20484;-51
2022/12/27 00:03:38;;;;;;;8.30;2.03;;;4.10;99.90;;;;;;5052894;28;20472;-49
2022/12/27 00:06:09;;;;;;;8.37;1.97;;;4.10;99.90;;;;;;5052843;28;20874;-49
2022/12/27 00:08:37;;;;;;;7.77;1.90;;;4.10;99.90;;;;;;5052823;28;20523;-49
2022/12/27 00:11:06;;;;;;;8.23;1.60;;;4.00;99.90;;;;;;5052948;28;20461;-54
2022/12/27 00:13:34;;;;;;;8.10;1.67;;;4.00;99.90;;;;;;5052297;28;20465;-54
2022/12/27 00:16:04;;;;;;;7.57;2.10;;;4.00;99.90;;;;;;5052975;28;20480;-50
2022/12/27 00:18:33;;;;;;;7.47;1.93;;;4.00;99.90;;;;;;5052609;28;20565;-54
2022/12/27 00:21:02;;;;;;;8.73;1.60;;;4.00;99.90;;;;;;5052368;28;20498;-53
2022/12/27 00:23:35;;;;;;;6.00;1.93;;;4.00;99.90;;;;;;5052608;28;20829;-53
2022/12/27 00:26:06;;;;;;;6.60;1.97;;;4.00;99.90;;;;;;5052611;28;20924;-52
2022/12/27 00:28:35;;;;;;;10.73;2.03;;;4.00;99.90;;;;;;5049137;28;21030;-53
2022/12/27 00:31:04;;;;;;;7.93;2.10;;;4.00;99.90;;;;;;5034022;28;20573;-52
2022/12/27 00:33:34;;;;;;;7.20;1.80;;;4.00;99.90;;;;;;5052052;28;20487;-54
2022/12/27 00:36:05;;;;;;;8.77;2.10;;;4.00;99.90;;;;;;5052661;28;20499;-54
2022/12/27 00:38:35;;;;;;;7.40;1.83;;;4.00;99.90;;;;;;5051940;28;20461;-53
2022/12/27 00:41:04;;;;;;;8.17;2.07;;;4.00;99.90;;;;;;5052066;28;20470;-53
2022/12/27 00:43:35;;;;;;;7.17;2.17;;;4.00;99.90;;;;;;5052069;28;20969;-54
2022/12/27 00:46:04;;;;;;;8.30;1.90;;;4.00;99.90;;;;;;5052362;28;20473;-48
2022/12/27 00:48:33;;;;;;;11.30;2.00;;;3.90;99.90;;;;;;5052192;28;20479;-48
2022/12/27 00:51:04;;;;;;;9.17;2.17;;;3.90;99.90;;;;;;5052550;28;20564;-51
2022/12/27 00:53:35;;;;;;;6.43;1.80;;;3.90;99.90;;;;;;5052256;28;20473;-51
2022/12/27 00:56:07;;;;;;;5.47;2.07;;;3.90;99.90;;;;;;5052190;28;20557;-51
2022/12/27 00:58:35;;;;;;;8.73;1.60;;;3.90;99.90;;;;;;5051757;28;20466;-52
2022/12/27 01:01:10;;;;;;;10.13;2.20;;;4.00;99.90;;;;;;5052005;28;21036;-53
2022/12/27 01:03:39;;;;;;;8.57;2.23;;;4.00;99.90;;;;;;5051699;28;20526;-52
2022/12/27 01:06:09;;;;;;;7.17;1.90;;;4.00;99.90;;;;;;5052230;28;20509;-50
2022/12/27 01:08:38;;;;;;;6.10;1.90;;;3.90;99.90;;;;;;5051742;28;20867;-53
2022/12/27 01:11:08;;;;;;;9.63;2.57;;;3.90;99.90;;;;;;5052319;28;20481;-53
2022/12/27 01:13:36;;;;;;;7.00;2.13;;;3.90;99.90;;;;;;5051925;28;20465;-53
2022/12/27 01:16:09;;;;;;;7.57;2.20;;;3.90;99.90;;;;;;5051706;28;20477;-51
2022/12/27 01:18:38;;;;;;;7.77;1.70;;;3.90;99.90;;;;;;5051647;28;20465;-53
2022/12/27 01:21:07;;;;;;;6.23;1.90;;;4.00;99.90;;;;;;5052500;28;20472;-53
2022/12/27 01:23:36;;;;;;;10.07;2.00;;;4.00;99.90;;;;;;5052106;28;20524;-54
2022/12/27 01:26:08;;;;;;;7.37;2.10;;;4.00;99.90;;;;;;5051881;28;20469;-52
2022/12/27 01:28:37;;;;;;;7.10;2.50;;;4.00;99.90;;;;;;5051924;28;20985;-53
2022/12/27 01:31:06;;;;;;;7.03;2.00;;;4.00;99.90;;;;;;5051594;28;20492;-52
2022/12/27 01:33:35;;;;;;;10.47;2.33;;;4.00;99.90;;;;;;5051260;28;20457;-53
2022/12/27 01:36:11;;;;;;;5.93;2.07;;;4.10;99.90;;;;;;5051829;28;20499;-52
2022/12/27 01:38:41;;;;;;;5.83;1.60;;;4.10;99.90;;;;;;5051990;28;20802;-49
2022/12/27 01:44:01;;;;;;;7.30;1.63;;;4.10;99.90;;;;;;5051775;28;20481;-51
2022/12/27 01:46:30;;;;;;;5.37;2.00;;;4.00;99.90;;;;;;5051752;28;20470;-51
2022/12/27 01:48:58;;;;;;;4.40;1.57;;;4.10;99.90;;;;;;5052034;28;20476;-49
2022/12/27 01:51:26;;;;;;;4.97;2.00;;;4.00;99.90;;;;;;5052606;28;20469;-53
2022/12/27 01:53:54;;;;;;;6.87;1.83;;;4.00;99.90;;;;;;5055350;28;20976;-52
2022/12/27 01:56:29;;;;;;;6.17;1.80;;;4.10;99.90;;;;;;5055676;28;20837;-54
2022/12/27 01:59:00;;;;;;;7.80;2.10;;;4.10;99.90;;;;;;5055172;28;20472;-52
2022/12/27 02:01:32;;;;;;;9.07;2.20;;;4.10;99.90;;;;;;5054613;28;20481;-53
2022/12/27 02:04:04;;;;;;;8.37;1.87;;;4.00;99.90;;;;;;5055065;28;20490;-53
2022/12/27 02:06:34;;;;;;;10.00;2.57;;;4.00;99.90;;;;;;5055088;28;20942;-54
2022/12/27 02:09:10;;;;;;;11.60;2.33;;;4.00;99.90;;;;;;5055205;28;20468;-53
2022/12/27 02:11:52;;;;;;;6.50;2.17;;;4.00;99.90;;;;;;5054999;28;20476;-54
2022/12/27 02:14:25;;;;;;;7.27;1.93;;;4.10;99.90;;;;;;5054804;28;20474;-53
2022/12/27 02:16:57;;;;;;;7.63;2.17;;;4.00;99.90;;;;;;5054938;28;20530;-54
2022/12/27 02:19:38;;;;;;;8.73;1.73;;;4.10;99.90;;;;;;5054664;28;20470;-52
2022/12/27 02:25:42;;;;;;;5.27;2.20;;;4.10;99.90;;;;;;5053882;28;20474;-52
2022/12/27 02:28:27;;;;;;;10.80;3.20;;;4.10;99.90;;;;;;5054032;28;20465;-53
2022/12/27 02:31:04;;;;;;;5.97;1.70;;;4.10;99.90;;;;;;5054392;28;21008;-53
2022/12/27 02:33:37;;;;;;;7.07;2.50;;;4.10;99.90;;;;;;5054298;28;20553;-53
2022/12/27 02:36:09;;;;;;;8.97;1.93;;;4.10;99.90;;;;;;5054777;28;20474;-54
2022/12/27 02:38:42;;;;;;;5.83;1.63;;;4.00;99.90;;;;;;5054542;28;20991;-52
2022/12/27 02:55:31;;;;;;;6.57;2.10;;;3.80;99.90;;;;;;5054563;28;21019;-51
2022/12/27 02:58:14;;;;;;;10.27;2.43;;;3.80;99.90;;;;;;5053454;28;20477;-53
2022/12/27 03:03:48;;;;;;;5.77;1.97;;;3.80;99.90;;;;;;5053542;28;20494;-52
2022/12/27 03:06:39;;;;;;;9.70;2.63;;;3.80;99.90;;;;;;5034257;28;20469;-52
2022/12/27 03:18:25;;;;;;;7.33;2.03;;;3.80;99.90;;;;;;5053759;28;20460;-52
2022/12/27 03:26:32;;;;;;;8.70;2.40;;;3.90;99.90;;;;;;5031837;28;20470;-51
2022/12/27 03:34:42;;;;;;;8.77;2.60;;;3.90;99.90;;;;;;5013301;28;20525;-51
2022/12/27 03:40:07;;;;;;;7.40;2.80;;;3.90;99.90;;;;;;5014081;28;20843;-53
2022/12/27 03:48:20;;;;;;;7.73;2.60;;;3.90;99.90;;;;;;5013370;28;20464;-52
2022/12/27 03:50:51;;;;;;;10.63;2.60;;;4.00;99.90;;;;;;5013249;28;20451;-53
2022/12/27 03:53:26;;;;;;;9.53;2.80;;;4.00;99.90;;;;;;5013724;28;20469;-52
2022/12/27 03:55:54;;;;;;;6.13;2.30;;;4.00;99.90;;;;;;5013720;28;20460;-52
2022/12/27 03:58:22;;;;;;;7.90;2.87;;;4.00;99.90;;;;;;5013000;28;20475;-51
2022/12/27 04:00:51;;;;;;;7.97;2.70;;;4.00;99.90;;;;;;5012898;28;20464;-51
2022/12/27 04:03:19;;;;;;;6.67;2.60;;;4.00;99.90;;;;;;5013019;28;20481;-52
2022/12/27 04:05:47;;;;;;;8.23;2.83;;;3.90;99.90;;;;;;5013229;28;20467;-52
2022/12/27 04:35:56;;;;;;;9.70;2.57;;;3.90;99.90;;;;;;5032752;28;20989;-53
2022/12/27 04:38:32;;;;;;;5.37;2.90;;;3.90;99.90;;;;;;5032818;28;21016;-54
2022/12/27 04:55:02;;;;;;;7.67;2.10;;;4.00;99.90;;;;;;5032327;28;20468;-52
2022/12/27 04:57:30;;;;;;;5.57;2.33;;;4.10;99.90;;;;;;5028580;28;20462;-52
2022/12/27 05:02:45;;;;;;;6.57;2.23;;;4.00;99.90;;;;;;5031787;28;20461;-53
2022/12/27 05:05:13;;;;;;;5.20;2.33;;;4.00;99.90;;;;;;5031890;28;20545;-53
2022/12/27 05:16:00;;;;;;;7.00;2.40;;;4.10;99.90;;;;;;5032207;28;20474;-53
2022/12/27 05:18:28;;;;;;;9.37;2.73;;;4.10;99.90;;;;;;5031943;28;20558;-50
2022/12/27 05:21:01;;;;;;;8.67;2.90;;;4.10;99.90;;;;;;5032286;28;20826;-53
2022/12/27 05:26:19;;;;;;;7.63;2.60;;;4.20;99.90;;;;;;5035013;28;20970;-52
2022/12/27 05:28:48;;;;;;;6.87;2.67;;;4.10;99.90;;;;;;5032874;28;20982;-52
2022/12/27 05:31:17;;;;;;;7.83;2.40;;;4.10;99.90;;;;;;5044606;28;20485;-51
2022/12/27 05:33:45;;;;;;;6.80;2.50;;;4.10;99.90;;;;;;5038956;28;21044;-52
2022/12/27 05:36:13;;;;;;;6.17;2.47;;;4.10;99.90;;;;;;5035816;28;20473;-50
2022/12/27 05:38:41;;;;;;;7.03;2.40;;;4.10;99.90;;;;;;5035897;28;20465;-53
2022/12/27 05:41:09;;;;;;;8.20;2.70;;;4.00;99.90;;;;;;5043567;28;20465;-53
2022/12/27 05:43:38;;;;;;;6.60;1.90;;;4.00;99.90;;;;;;5035347;28;20486;-53
2022/12/27 05:46:09;;;;;;;5.73;2.63;;;4.00;99.90;;;;;;5035615;28;20521;-52
2022/12/27 05:48:39;;;;;;;6.97;2.50;;;3.90;99.90;;;;;;5035482;28;21029;-53
2022/12/27 05:51:10;;;;;;;9.00;2.70;;;3.90;99.90;;;;;;5035501;28;20478;-52
2022/12/27 05:53:39;;;;;;;6.87;2.67;;;3.90;99.90;;;;;;5035708;28;20485;-51
2022/12/27 05:56:08;;;;;;;5.07;2.30;;;3.90;99.90;;;;;;5035531;28;20453;-53
2022/12/27 05:58:37;;;;;;;7.97;2.47;;;3.90;99.90;;;;;;5043254;28;20475;-52
2022/12/27 06:01:09;;;;;;;9.10;2.90;;;3.90;99.90;;;;;;5054027;28;20988;-52
2022/12/27 06:03:38;;;;;;;6.50;2.13;;;3.90;99.90;;;;;;5039310;28;20825;-53
2022/12/27 06:06:07;;;;;;;6.70;2.90;;;3.90;99.90;;;;;;5035354;28;20907;-52
2022/12/27 06:08:36;;;;;;;8.97;2.87;;;3.80;99.90;;;;;;5034972;28;20467;-52
2022/12/27 06:11:07;;;;;;;8.03;2.80;;;3.80;99.90;;;;;;5046014;28;20476;-53
2022/12/27 06:13:36;;;;;;;5.97;2.33;;;3.80;99.90;;;;;;5054941;28;20471;-53
2022/12/27 06:16:06;;;;;;;9.83;2.83;;;3.80;99.90;;;;;;5050025;28;20474;-53
2022/12/27 06:18:36;;;;;;;7.20;2.90;;;3.80;99.90;;;;;;5036219;28;20505;-51
2022/12/27 06:21:07;;;;;;;8.27;3.10;;;3.90;99.90;;;;;;5054790;28;20457;-53
2022/12/27 06:23:38;;;;;;;7.90;2.37;;;3.90;99.90;;;;;;5054858;28;20520;-53
2022/12/27 06:26:07;;;;;;;6.03;2.50;;;3.90;99.90;;;;;;5054783;28;20525;-54
2022/12/27 06:28:35;;;;;;;7.77;2.83;;;3.90;99.90;;;;;;5036106;28;20465;-52
2022/12/27 06:31:03;;;;;;;9.63;2.93;;;3.90;99.90;;;;;;5050622;28;20487;-52
2022/12/27 06:33:32;;;;;;;4.87;2.40;;;3.90;99.90;;;;;;5055480;28;20957;-53
2022/12/27 06:36:07;;;;;;;9.17;2.70;;;3.90;99.90;;;;;;5052978;28;20468;-53
2022/12/27 06:38:36;;;;;;;7.10;2.60;;;3.90;99.90;;;;;;5053353;28;20503;-53
2022/12/27 06:41:05;;;;;;;5.10;2.50;;;3.80;99.90;;;;;;5055355;28;20470;-52
2022/12/27 06:43:34;;;;;;;9.17;2.90;;;3.80;99.90;;;;;;5054607;28;20937;-53
2022/12/27 06:46:05;;;;;;;6.97;2.70;;;3.80;99.90;;;;;;5054029;28;20981;-54
2022/12/27 06:48:33;;;;;;;6.43;2.50;;;3.80;99.90;;;;;;5054165;28;20458;-50
2022/12/27 06:51:04;;;;;;;6.57;2.53;;;3.70;99.90;;;;;;5054278;28;20473;-53
2022/12/27 06:53:35;;;;;;;9.23;2.63;;;3.70;99.90;;;;;;5053969;28;20458;-51
2022/12/27 06:56:04;;;;;;;6.20;2.57;;;3.70;99.90;;;;;;5052043;28;20469;-53
2022/12/27 06:58:32;;;;;;;8.73;2.80;;;3.70;99.90;;;;;;5053533;28;20462;-53
2022/12/27 07:01:07;;;;;;;9.70;2.80;;;3.70;99.90;;;;;;5052377;28;20477;-52
2022/12/27 07:03:35;;;;;;;7.47;2.63;;;3.70;99.90;;;;;;5054566;28;20537;-53
2022/12/27 07:06:06;;;;;;;7.90;2.60;;;3.70;99.90;;;;;;5053865;28;20989;-51
2022/12/27 07:08:36;;;;;;;9.93;2.20;;;3.80;99.90;;;;;;5053230;28;20474;-51
2022/12/27 07:11:07;;;;;;;6.10;2.20;;;3.70;99.90;;;;;;5053706;28;20823;-53
2022/12/27 07:13:36;;;;;;;5.57;2.13;;;3.70;99.90;;;;;;5053300;28;20467;-52
2022/12/27 07:16:05;;;;;;;7.80;2.53;;;3.70;99.90;;;;;;5053274;28;20477;-52
2022/12/27 07:18:33;;;;;;;8.50;2.10;;;3.70;99.90;;;;;;5052974;28;20994;-52
2022/12/27 07:21:04;;;;;;;6.53;1.90;;;3.80;99.90;;;;;;5050783;28;20824;-51
2022/12/27 07:23:32;;;;;;;8.17;2.43;;;3.70;99.90;;;;;;5053473;28;20465;-53
2022/12/27 07:26:03;;;;;;;7.90;2.13;;;3.80;99.90;;;;;;5051212;28;20485;-52
2022/12/27 07:28:32;;;;;;;7.73;2.30;;;3.70;99.90;;;;;;5053248;28;20459;-53
2022/12/27 07:31:05;;;;;;;8.87;2.07;;;3.70;99.90;;;;;;5052976;28;20826;-52
2022/12/27 07:33:33;;;;;;;5.83;1.80;;;3.70;99.90;;;;;;5056186;28;21006;-52
2022/12/27 07:36:02;;;;;;;10.73;2.10;;;3.70;99.90;;;;;;5053253;28;20473;-53
2022/12/27 07:38:31;;;;;;;9.23;2.90;;;3.60;99.90;;;;;;5053113;28;20472;-53
2022/12/27 07:41:00;;;;;;;8.77;2.03;;;3.60;99.90;;;;;;5053230;28;20545;-53
2022/12/27 07:43:31;;;;;;;7.23;1.90;;;3.60;99.90;;;;;;5052985;28;20469;-53
2022/12/27 07:46:04;;;;;;;8.23;2.03;;;3.60;99.90;;;;;;5052591;28;20494;-54
2022/12/27 07:48:32;;;;;;;6.83;1.90;;;3.70;99.90;;;;;;5050884;28;20572;-54
2022/12/27 07:51:00;;;;;;;10.73;2.43;;;3.70;99.90;;;;;;5060618;28;20465;-53
2022/12/27 07:53:28;;;;;;;9.60;2.27;;;3.70;99.90;;;;;;5061074;28;20479;-53
2022/12/27 07:55:57;;;;;;;7.13;2.20;;;3.70;99.90;;;;;;5062303;28;20461;-53
2022/12/27 07:58:25;;;;;;;4.17;1.90;;;3.70;99.90;;;;;;5058563;28;20467;-53
2022/12/27 08:00:55;;;;;;;5.63;2.30;;;3.70;99.90;;;;;;5063122;28;20484;-53
2022/12/27 08:03:23;;;;;;;5.03;1.93;;;3.70;99.90;;;;;;5062281;28;20988;-55
2022/12/27 08:05:52;;;;;;;8.27;2.40;;;3.70;99.90;;;;;;5062679;28;20480;-53
2022/12/27 08:08:24;;;;;;;8.20;2.50;;;3.60;99.90;;;;;;5062058;28;20476;-50
2022/12/27 08:10:52;;;;;;;8.17;2.60;;;3.60;99.90;;;;;;5064678;28;20460;-52
2022/12/27 08:13:20;;;;;;;13.20;2.83;;;3.60;99.90;;;;;;5066010;28;20535;-51
2022/12/27 08:15:57;;;;;;;6.70;2.43;;;3.60;99.90;;;;;;5063172;28;20535;-52
2022/12/27 08:18:25;;;;;;;7.60;3.07;;;3.60;99.90;;;;;;5062649;28;20476;-53
2022/12/27 08:20:53;;;;;;;8.10;2.60;;;3.60;99.90;;;;;;5064377;28;20465;-52
2022/12/27 08:23:21;;;;;;;10.57;2.80;;;3.70;99.90;;;;;;5063462;28;20471;-54
2022/12/27 08:25:49;;;;;;;7.03;2.43;;;3.70;99.90;;;;;;5061912;28;20474;-52
2022/12/27 08:28:18;;;;;;;6.77;2.23;;;3.70;99.90;;;;;;5059545;28;20784;-50
2022/12/27 08:30:47;;;;;;;7.33;2.57;;;3.70;99.90;;;;;;5060794;28;20488;-52
2022/12/27 08:33:18;;;;;;;7.13;2.57;;;3.80;99.90;;;;;;5058457;28;20473;-52
2022/12/27 08:35:46;;;;;;;5.90;2.63;;;3.80;99.90;;;;;;5064516;28;20480;-51
2022/12/27 08:38:22;;;;;;;6.93;2.97;;;3.80;99.90;;;;;;5063825;28;20470;-50
2022/12/27 08:40:51;;;;;;;7.10;3.10;;;3.80;99.90;;;;;;5066865;28;20464;-52
2022/12/27 08:43:19;;;;;;;12.67;3.30;;;3.80;99.90;;;;;;5066793;28;20468;-51
2022/12/27 08:45:47;;;;;;;10.80;3.00;;;3.80;99.90;;;;;;5064291;28;20992;-53
2022/12/27 08:48:17;;;;;;;8.43;2.70;;;3.80;99.90;;;;;;5064714;28;20456;-52
2022/12/27 08:50:45;;;;;;;8.27;2.63;;;3.80;99.90;;;;;;5064659;28;20471;-56
2022/12/27 08:53:13;;;;;;;10.40;3.83;;;3.90;99.90;;;;;;5066353;28;20461;-55
2022/12/27 08:55:41;;;;;;;8.43;2.93;;;4.00;99.90;;;;;;5063712;28;21003;-53
2022/12/27 08:58:11;;;;;;;9.43;2.93;;;3.90;99.90;;;;;;5064136;28;20866;-54
2022/12/27 09:00:43;;;;;;;8.80;3.33;;;4.00;99.90;;;;;;5067738;28;20526;-52
2022/12/27 09:03:11;;;;;;;9.33;2.77;;;4.00;99.90;;;;;;5067376;28;20465;-55
2022/12/27 09:05:41;;;;;;;8.73;3.53;;;4.00;99.90;;;;;;5065543;28;20481;-53
2022/12/27 09:08:09;;;;;;;10.00;3.07;;;4.00;99.90;;;;;;5069444;28;20526;-56
2022/12/27 09:10:38;;;;;;;11.13;3.53;;;4.00;99.90;;;;;;5068948;28;20465;-53
2022/12/27 09:13:06;;;;;;;10.70;3.00;;;4.00;99.90;;;;;;5066258;28;20564;-52
2022/12/27 09:15:34;;;;;;;6.67;2.90;;;4.00;99.90;;;;;;5069335;28;20462;-54
2022/12/27 09:18:02;;;;;;;9.67;2.80;;;4.10;99.90;;;;;;5067278;28;20469;-53
2022/12/27 09:20:31;;;;;;;7.70;2.57;;;4.10;99.90;;;;;;5068474;28;20554;-53
2022/12/27 09:23:00;;;;;;;8.20;2.80;;;4.20;99.90;;;;;;5067611;28;20488;-52
2022/12/27 09:25:28;;;;;;;8.43;2.53;;;4.10;99.90;;;;;;5068164;28;20466;-50
2022/12/27 09:27:56;;;;;;;9.00;3.17;;;4.10;99.90;;;;;;5064903;28;20503;-53
2022/12/27 09:30:24;;;;;;;8.73;2.83;;;4.10;99.90;;;;;;5068257;28;20544;-55
2022/12/27 09:32:52;;;;;;;11.63;2.50;;;4.20;99.90;;;;;;5068669;28;20453;-53
2022/12/27 09:35:20;;;;;;;8.37;2.83;;;4.20;99.90;;;;;;5066070;28;20469;-53
2022/12/27 09:37:48;;;;;;;10.57;2.80;;;4.30;99.90;;;;;;5068638;28;20483;-53
2022/12/27 09:40:21;;;;;;;12.37;2.93;;;4.40;99.90;;;;;;5068831;28;20580;-53
2022/12/27 09:42:56;;;;;;;8.90;3.20;;;4.40;99.90;;;;;;5067157;28;20462;-53
2022/12/27 09:45:47;;;;;;;8.07;2.80;;;4.40;99.90;;;;;;5063800;28;20988;-52
2022/12/27 09:48:22;;;;;;;8.90;2.77;;;4.40;99.90;;;;;;5060254;28;20466;-53
2022/12/27 09:51:01;;;;;;;10.37;2.10;;;4.50;99.90;;;;;;5055198;28;20531;-54
2022/12/27 09:53:38;;;;;;;9.90;2.93;;;4.60;99.90;;;;;;5055197;28;20469;-53
2022/12/27 09:56:11;;;;;;;10.87;2.77;;;4.70;99.90;;;;;;5055218;28;20462;-50
2022/12/27 09:58:46;;;;;;;6.47;2.23;;;4.70;99.90;;;;;;5053185;28;20502;-52
2022/12/27 10:01:21;;;;;;;9.60;2.50;;;4.80;99.90;;;;;;5043134;28;20480;-51
2022/12/27 10:03:49;;;;;;;10.80;3.07;;;4.80;99.90;;;;;;5055143;28;20480;-54
2022/12/27 10:06:41;;;;;;;11.07;2.33;;;5.00;99.90;;;;;;5055242;28;21004;-54
2022/12/27 10:09:24;;;;;;;8.80;2.20;;;5.10;99.90;;;;;;5055436;28;20466;-52
2022/12/27 10:12:00;;;;;;;9.17;2.10;;;5.10;99.90;;;;;;5052908;28;20485;-53
2022/12/27 10:14:41;;;;;;;7.97;2.10;;;4.90;99.90;;;;;;5053062;28;20463;-53
2022/12/27 10:17:19;;;;;;;7.17;2.30;;;4.90;99.90;;;;;;5055073;28;20469;-50
2022/12/27 10:19:58;;;;;;;8.33;3.07;;;4.80;99.90;;;;;;5054751;28;20991;-53
2022/12/27 10:22:35;;;;;;;8.17;2.80;;;5.00;99.90;;;;;;5055166;28;20477;-51
2022/12/27 10:25:05;;;;;;;7.73;2.20;;;5.00;99.90;;;;;;5055251;28;20458;-53
2022/12/27 10:27:35;;;;;;;8.73;2.57;;;5.10;99.90;;;;;;5054213;28;20519;-53
2022/12/27 10:30:13;;;;;;;11.37;2.40;;;5.20;99.90;;;;;;5055040;28;20492;-54
2022/12/27 10:32:42;;;;;;;8.30;2.10;;;5.30;99.90;;;;;;5053731;28;20826;-53
2022/12/27 10:35:14;;;;;;;11.33;2.63;;;5.30;99.90;;;;;;5054100;28;20465;-54
2022/12/27 10:37:44;;;;;;;10.83;2.23;;;5.40;99.90;;;;;;5054211;28;20457;-53
2022/12/27 10:40:17;;;;;;;10.03;2.47;;;5.50;99.90;;;;;;5051291;28;20967;-53
2022/12/27 10:42:58;;;;;;;8.20;2.70;;;5.60;99.90;;;;;;5063792;28;20468;-52
2022/12/27 10:45:38;;;;;;;7.27;1.90;;;5.70;99.90;;;;;;5066028;28;20461;-52
2022/12/27 10:48:18;;;;;;;6.23;2.00;;;5.70;99.90;;;;;;5067284;28;20574;-52
2022/12/27 10:50:50;;;;;;;8.70;2.30;;;5.80;99.90;;;;;;5065088;28;20481;-51
2022/12/27 10:53:36;;;;;;;9.40;2.50;;;5.90;99.90;;;;;;5065430;28;20460;-53
2022/12/27 10:56:25;;;;;;;9.27;2.23;;;6.00;99.90;;;;;;5065865;28;20509;-54
2022/12/27 10:59:04;;;;;;;6.67;2.10;;;6.10;99.90;;;;;;5064981;28;20484;-53
2022/12/27 11:01:33;;;;;;;7.27;2.00;;;6.20;99.90;;;;;;5065679;28;20878;-52
2022/12/27 11:04:14;;;;;;;10.30;1.97;;;6.30;99.90;;;;;;5065950;28;20466;-54
2022/12/27 11:06:50;;;;;;;9.80;2.30;;;6.40;99.90;;;;;;5065713;28;20283;-49
2022/12/27 11:09:25;;;;;;;6.33;2.07;;;6.40;99.90;;;;;;5068226;28;20222;-51
2022/12/27 11:12:11;;;;;;;11.80;2.33;;;6.40;99.90;;;;;;5067870;28;20465;-53
2022/12/27 11:14:41;;;;;;;8.00;2.17;;;6.50;99.90;;;;;;5067489;28;20464;-54
2022/12/27 11:17:10;;;;;;;8.80;2.20;;;6.60;99.90;;;;;;5065794;28;20234;-52
2022/12/27 11:19:44;;;;;;;9.07;2.40;;;6.60;99.90;;;;;;5066483;28;20239;-55
2022/12/27 11:22:13;;;;;;;10.07;2.07;;;6.70;99.90;;;;;;5066208;28;20467;-52
2022/12/27 11:24:46;;;;;;;7.93;2.13;;;6.70;99.90;;;;;;5067352;28;20469;-50
2022/12/27 11:27:23;;;;;;;5.93;2.07;;;6.80;99.90;;;;;;5065446;28;20226;-54
2022/12/27 11:29:56;;;;;;;13.70;2.80;;;6.80;99.90;;;;;;5064622;28;20606;-52
2022/12/27 11:32:24;;;;;;;6.93;2.10;;;6.80;99.90;;;;;;5062862;28;20614;-52
2022/12/27 11:34:54;;;;;;;9.50;2.40;;;6.90;99.90;;;;;;5066099;28;20702;-51
2022/12/27 11:37:26;;;;;;;11.43;2.57;;;6.80;99.90;;;;;;5066563;28;20223;-52
2022/12/27 11:39:55;;;;;;;7.47;2.50;;;6.80;99.90;;;;;;5064140;28;20228;-53
2022/12/27 11:42:31;;;;;;;6.30;2.23;;;6.70;99.90;;;;;;5066414;28;20231;-53
2022/12/27 11:45:07;;;;;;;7.43;2.50;;;6.80;99.90;;;;;;5065230;28;20226;-49
2022/12/27 11:47:41;;;;;;;9.17;2.47;;;6.80;99.90;;;;;;5063246;28;20219;-53
2022/12/27 11:50:30;;;;;;;10.27;2.80;;;6.80;99.90;;;;;;5066529;28;20628;-52
2022/12/27 11:53:28;;;;;;;5.87;2.23;;;6.80;99.90;;;;;;5066726;28;20706;-51
2022/12/27 11:56:12;;;;;;;6.43;2.30;;;6.70;99.90;;;;;;5067089;28;20328;-52
2022/12/27 11:59:08;;;;;;;10.57;2.60;;;6.70;99.90;;;;;;5062802;28;20215;-53
2022/12/27 12:02:20;;;;;;;7.73;2.20;;;6.70;99.90;;;;;;5049880;28;20232;-53
2022/12/27 12:05:30;;;;;;;7.30;2.40;;;6.60;99.90;;;;;;5003702;28;20318;-52
2022/12/27 12:08:14;;;;;;;9.23;2.57;;;6.60;99.90;;;;;;5018097;28;20247;-49
2022/12/27 12:10:49;;;;;;;9.13;2.53;;;6.70;99.90;;;;;;5066426;28;20230;-51
2022/12/27 12:13:44;;;;;;;9.33;3.17;;;6.70;99.90;;;;;;5067048;28;20975;-52
2022/12/27 12:16:34;;;;;;;10.03;3.13;;;6.70;99.90;;;;;;5055503;28;20321;-53
2022/12/27 12:19:20;;;;;;;9.73;2.93;;;6.70;99.90;;;;;;5035253;28;20275;-52
2022/12/27 12:21:58;;;;;;;13.03;3.23;;;6.60;99.90;;;;;;5052221;28;20232;-51
2022/12/27 12:24:41;;;;;;;6.27;2.40;;;6.60;99.90;;;;;;5052288;28;20227;-49
2022/12/27 12:27:27;;;;;;;8.97;2.70;;;6.60;99.90;;;;;;5050963;28;20747;-50
2022/12/27 12:30:19;;;;;;;7.93;2.30;;;6.70;99.90;;;;;;5050640;28;20227;-51
2022/12/27 12:33:16;;;;;;;10.93;2.50;;;6.80;99.90;;;;;;5035867;28;20232;-50
2022/12/27 12:35:59;;;;;;;9.30;2.70;;;6.80;99.90;;;;;;5051556;28;20224;-49
2022/12/27 12:38:36;;;;;;;8.07;2.83;;;6.70;99.90;;;;;;5052260;28;20459;-51
2022/12/27 12:41:40;;;;;;;8.37;2.57;;;6.70;99.90;;;;;;5052625;28;20474;-48
2022/12/27 12:44:36;;;;;;;7.87;2.27;;;6.70;99.90;;;;;;5052108;28;20238;-51
2022/12/27 12:47:19;;;;;;;6.47;2.20;;;6.70;99.90;;;;;;5052263;28;20590;-51
2022/12/27 12:50:03;;;;;;;10.47;2.37;;;6.70;99.90;;;;;;5053094;28;20318;-50
2022/12/27 12:53:00;;;;;;;9.03;2.37;;;6.70;99.90;;;;;;5052643;28;20290;-50
2022/12/27 12:55:39;;;;;;;9.87;2.47;;;6.70;99.90;;;;;;5050693;28;20639;-47
2022/12/27 12:58:19;;;;;;;10.07;2.40;;;6.70;99.90;;;;;;5048651;28;20463;-50
2022/12/27 13:01:03;;;;;;;8.73;2.40;;;6.70;99.90;;;;;;5051682;28;20239;-48
2022/12/27 13:04:04;;;;;;;7.93;1.93;;;6.70;99.90;;;;;;5052110;28;20227;-49
2022/12/27 13:06:57;;;;;;;10.93;2.70;;;6.70;99.90;;;;;;5032541;28;20234;-50
2022/12/27 13:09:40;;;;;;;8.33;2.10;;;6.60;99.90;;;;;;5032151;28;20240;-51
2022/12/27 13:12:11;;;;;;;7.67;2.27;;;6.50;99.90;;;;;;5037582;28;20480;-50
2022/12/27 13:15:12;;;;;;;8.20;2.13;;;6.50;99.90;;;;;;5052004;28;20235;-49
2022/12/27 13:17:49;;;;;;;9.10;1.90;;;6.50;99.90;;;;;;5045565;28;20230;-50
2022/12/27 13:20:26;;;;;;;9.73;2.60;;;6.40;99.90;;;;;;5067656;28;20477;-50
2022/12/27 13:23:07;;;;;;;8.27;2.20;;;6.40;99.90;;;;;;5069006;28;20222;-47
2022/12/27 13:25:42;;;;;;;9.47;2.77;;;6.30;99.90;;;;;;5067962;28;20308;-50
2022/12/27 13:28:36;;;;;;;7.03;2.20;;;6.30;99.90;;;;;;5051703;28;20254;-47
2022/12/27 13:31:13;;;;;;;7.57;2.20;;;6.30;99.90;;;;;;5051550;28;20231;-51
2022/12/27 13:33:51;;;;;;;10.07;2.67;;;6.30;99.90;;;;;;5054403;28;20223;-52
2022/12/27 13:36:26;;;;;;;10.33;2.13;;;6.30;99.90;;;;;;5032377;28;20240;-52
2022/12/27 13:39:14;;;;;;;10.80;2.70;;;6.30;99.90;;;;;;5032360;28;20243;-49
2022/12/27 13:41:56;;;;;;;10.30;2.80;;;6.30;99.90;;;;;;5069759;28;20231;-50
2022/12/27 13:44:37;;;;;;;12.10;2.40;;;6.30;99.90;;;;;;5072248;28;20228;-49
2022/12/27 13:47:33;;;;;;;9.03;3.23;;;6.20;99.90;;;;;;5074260;28;20980;-51
2022/12/27 13:50:28;;;;;;;7.23;3.20;;;6.20;99.90;;;;;;5070191;28;20477;-50
2022/12/27 13:53:33;;;;;;;6.77;2.40;;;6.20;99.90;;;;;;5075302;28;20226;-52
2022/12/27 13:56:09;;;;;;;9.70;3.10;;;6.10;99.90;;;;;;5070665;28;20223;-51
2022/12/27 13:59:46;;;;;;;8.37;2.60;;;6.10;99.90;;;;;;5053445;28;20216;-50
2022/12/27 14:02:46;;;;;;;4.77;2.37;;;6.10;99.90;;;;;;5047050;28;20231;-50
2022/12/27 14:05:48;;;;;;;8.37;3.00;;;6.10;99.90;;;;;;5020039;28;20238;-48
2022/12/27 14:08:25;;;;;;;11.47;2.00;;;6.10;99.90;;;;;;5056012;28;20607;-48
2022/12/27 14:10:53;;;;;;;8.77;2.40;;;6.00;99.90;;;;;;5056254;28;20629;-47
2022/12/27 14:13:34;;;;;;;7.83;2.50;;;6.00;99.90;;;;;;5054966;28;20269;-50
2022/12/27 14:16:25;;;;;;;9.87;2.60;;;5.90;99.90;;;;;;5055390;28;20309;-50
2022/12/27 14:19:10;;;;;;;10.20;3.30;;;5.90;99.90;;;;;;5055141;28;20244;-51
2022/12/27 14:22:08;;;;;;;9.53;3.30;;;5.90;99.90;;;;;;5055237;28;20591;-47
2022/12/27 14:25:29;;;;;;;8.80;2.60;;;5.80;99.90;;;;;;5043091;28;20334;-50
2022/12/27 14:28:34;;;;;;;8.27;2.97;;;5.80;99.90;;;;;;5052307;28;20220;-50
2022/12/27 14:31:36;;;;;;;7.57;3.33;;;5.80;99.90;;;;;;5021599;28;20469;-50
2022/12/27 14:34:38;;;;;;;9.90;2.90;;;5.80;99.90;;;;;;5054895;28;20280;-51
2022/12/27 14:37:42;;;;;;;7.17;3.20;;;5.70;99.90;;;;;;5038436;28;20489;-51
2022/12/27 14:40:42;;;;;;;10.20;3.30;;;5.70;99.90;;;;;;5008169;28;20592;-47
2022/12/27 14:43:45;;;;;;;8.60;3.47;;;5.70;99.90;;;;;;5054924;28;20235;-52
2022/12/27 14:46:37;;;;;;;11.40;3.83;;;5.60;99.90;;;;;;5054218;28;20975;-49
2022/12/27 14:49:42;;;;;;;10.03;3.87;;;5.60;99.90;;;;;;5053599;28;20493;-51
2022/12/27 14:52:46;;;;;;;8.40;3.43;;;5.60;99.90;;;;;;5054736;28;20760;-50
2022/12/27 14:55:40;;;;;;;11.10;4.70;;;5.60;99.90;;;;;;5054479;28;20277;-48
2022/12/27 14:58:29;;;;;;;9.97;3.57;;;5.60;99.90;;;;;;5052568;28;20226;-51
2022/12/27 15:01:09;;;;;;;7.90;3.50;;;5.60;99.90;;;;;;5055666;28;20565;-49
2022/12/27 15:03:58;;;;;;;10.53;4.00;;;5.60;99.90;;;;;;5056397;28;20228;-50
2022/12/27 15:07:02;;;;;;;10.97;4.17;;;5.50;99.90;;;;;;5041570;28;20512;-51
2022/12/27 15:09:39;;;;;;;11.57;4.67;;;5.50;99.90;;;;;;5053767;28;20481;-53
2022/12/27 15:12:22;;;;;;;10.97;4.07;;;5.50;99.90;;;;;;5053905;28;20231;-52
2022/12/27 15:15:08;;;;;;;10.57;4.00;;;5.50;99.90;;;;;;5053853;28;20964;-53
2022/12/27 15:18:00;;;;;;;12.60;4.77;;;5.50;99.90;;;;;;5053585;28;20235;-52
2022/12/27 15:20:45;;;;;;;9.30;3.93;;;5.50;99.90;;;;;;5052945;28;20695;-53
2022/12/27 15:23:24;;;;;;;10.40;4.37;;;5.40;99.90;;;;;;5049331;28;20454;-50
2022/12/27 15:26:04;;;;;;;10.60;4.72;;;5.40;99.90;;;;;;5052831;28;20443;-51
2022/12/27 15:28:47;;;;;;;10.93;4.13;;;5.40;99.90;;;;;;5053314;28;20238;-53